Погода Бакабална 2 недели

Мараньян, Бразилия

14 - 26 июля
  • 14июля
    Сегодня
    +22°
    +33°
    Ясно и безоблачно
    ВремяПогодаТемператураВлажностьДавлениеВетер, м/сВероятность осадков
    00:00Практически безоблачно+26°C71 %757 мм2.0 м/с5 %
    03:00Облачно с прояснениями+25°C66 %757 мм3.2 м/с5 %
    06:00Облачно с прояснениями+24°C59 %758 мм3.9 м/с5 %
    09:00Облачно с прояснениями+27°C57 %759 мм4.4 м/с5 %
    12:00Практически безоблачно+31°C48 %758 мм4.7 м/с5 %
    15:00Ясно и безоблачно+32°C42 %756 мм3.5 м/с5 %
    18:00Ясно и безоблачно+29°C56 %757 мм2.7 м/с5 %
    21:00Ясно и безоблачно+27°C53 %758 мм3.3 м/с5 %
  • 15июля
    Понедельник
    +24°
    +34°
    Облачно с прояснениями
    ВремяПогодаТемператураВлажностьДавлениеВетер, м/сВероятность осадков
    00:00Ясно и безоблачно+26°C56 %758 мм2.4 м/с5 %
    03:00Ясно и безоблачно+23°C67 %757 мм2.0 м/с5 %
    06:00Ясно и безоблачно+22°C70 %758 мм2.3 м/с5 %
    09:00Ясно и безоблачно+27°C58 %759 мм3.0 м/с5 %
    12:00Ясно и безоблачно+32°C47 %759 мм4.5 м/с5 %
    15:00Облачно с прояснениями+33°C44 %757 мм4.2 м/с5 %
    18:00Небольшая облачность+30°C61 %758 мм2.0 м/с5 %
    21:00Небольшая облачность+28°C67 %758 мм1.9 м/с5 %
  • 16июля
    Вторник
    +22°
    +34°
    Ясно и безоблачно
    ВремяПогодаТемператураВлажностьДавлениеВетер, м/сВероятность осадков
    00:00Ясно и безоблачно+26°C75 %758 мм1.7 м/с5 %
    03:00Облачно с прояснениями+26°C66 %758 мм2.9 м/с4 %
    06:00Ясно и безоблачно+25°C61 %758 мм3.3 м/с4 %
    09:00Ясно и безоблачно+28°C55 %760 мм4.1 м/с12 %
    12:00Ясно и безоблачно+32°C43 %759 мм4.8 м/с10 %
    15:00Ясно и безоблачно+34°C40 %757 мм3.2 м/с3 %
    18:00Ясно и безоблачно+30°C55 %757 мм1.9 м/с5 %
    21:00Ясно и безоблачно+27°C65 %759 мм2.3 м/с5 %
  • 17июля
    Среда
    +22°
    +34°
    Ясно и безоблачно
    ВремяПогодаТемператураВлажностьДавлениеВетер, м/сВероятность осадков
    00:00Ясно и безоблачно+26°C66 %759 мм2.7 м/с5 %
    03:00Ясно и безоблачно+24°C60 %758 мм2.9 м/с5 %
    06:00Ясно и безоблачно+22°C64 %759 мм1.9 м/с5 %
    09:00Ясно и безоблачно+27°C56 %760 мм3.0 м/с9 %
    12:00Ясно и безоблачно+32°C45 %759 мм4.6 м/с6 %
    15:00Ясно и безоблачно+33°C41 %756 мм2.8 м/с5 %
    18:00Небольшая облачность+30°C62 %757 мм1.7 м/с5 %
    21:00Практически безоблачно+28°C73 %758 мм1.7 м/с5 %
Мы используем cookies
Соглашаюсь